Time;durP1;ratioP1;P1;durP2;ratioP2;P2;SDS_P1;SDS_P2;PMS_P1;PMS_P2;Temp;Humidity;BMP_temperature;BMP_pressure;BME280_temperature;BME280_humidity;BME280_pressure;Samples;Min_cycle;Max_cycle;Signal;HPM_P1;HPM_P2
2021/04/07 00:00:13;;;;;;;135.30;51.17;;;-4.10;99.90;;;;;;5072456;28;20107;-79
2021/04/07 00:02:39;;;;;;;133.10;51.50;;;-4.10;99.90;;;;;;5054407;28;20024;-79
2021/04/07 00:05:09;;;;;;;126.57;48.17;;;-4.20;99.90;;;;;;5054477;28;20079;-79
2021/04/07 00:07:35;;;;;;;114.40;45.13;;;-4.10;99.90;;;;;;5054455;28;20021;-80
2021/04/07 00:10:04;;;;;;;114.07;45.03;;;-4.20;99.90;;;;;;5073063;28;20068;-79
2021/04/07 00:12:30;;;;;;;111.50;43.03;;;-4.20;99.90;;;;;;5054329;28;20020;-79
2021/04/07 00:14:55;;;;;;;102.70;44.13;;;-4.20;99.90;;;;;;5072423;28;20040;-80
2021/04/07 00:17:21;;;;;;;109.47;46.80;;;-4.20;99.90;;;;;;5072469;28;20096;-80
2021/04/07 00:19:47;;;;;;;99.43;42.10;;;-4.20;99.90;;;;;;5071982;28;20046;-80
2021/04/07 00:22:12;;;;;;;98.25;43.25;;;-4.30;99.90;;;;;;5083389;28;20474;-79
2021/04/07 00:24:38;;;;;;;104.33;41.43;;;-4.30;99.90;;;;;;5072363;28;20485;-81
2021/04/07 00:27:09;;;;;;;188.40;66.07;;;-4.30;99.90;;;;;;5092252;28;20028;-80
2021/04/07 00:29:34;;;;;;;171.07;57.83;;;-4.40;99.90;;;;;;5074122;28;20016;-80
2021/04/07 00:32:00;;;;;;;157.93;56.73;;;-4.40;99.90;;;;;;5074058;28;20027;-81
2021/04/07 00:34:26;;;;;;;145.57;51.50;;;-4.40;99.90;;;;;;5077494;28;20028;-81
2021/04/07 00:36:51;;;;;;;93.37;40.00;;;-4.40;99.90;;;;;;5077801;28;20028;-80
2021/04/07 00:39:17;;;;;;;82.83;36.57;;;-4.50;99.90;;;;;;5077902;28;20024;-80
2021/04/07 00:41:42;;;;;;;86.87;36.80;;;-4.50;99.90;;;;;;5095442;28;20028;-80
2021/04/07 00:44:08;;;;;;;90.37;39.37;;;-4.50;99.90;;;;;;5095905;28;20068;-80
2021/04/07 00:46:35;;;;;;;99.13;40.47;;;-4.50;99.90;;;;;;5095959;28;20026;-80
2021/04/07 00:49:01;;;;;;;104.17;45.80;;;-4.50;99.90;;;;;;5077591;28;20048;-80
2021/04/07 00:51:27;;;;;;;129.70;45.83;;;-4.50;99.90;;;;;;5076778;28;20496;-80
2021/04/07 00:53:53;;;;;;;127.77;47.53;;;-4.40;99.90;;;;;;5095830;28;20086;-80
2021/04/07 00:56:19;;;;;;;123.67;46.20;;;-4.30;99.90;;;;;;5095602;28;20103;-80
2021/04/07 00:58:45;;;;;;;119.63;46.13;;;-4.30;99.90;;;;;;5095704;28;20032;-81
2021/04/07 01:01:11;;;;;;;102.47;40.03;;;-4.20;99.90;;;;;;5095654;28;20523;-80
2021/04/07 01:03:37;;;;;;;101.17;39.63;;;-4.10;99.90;;;;;;5095493;28;20068;-80
2021/04/07 01:06:03;;;;;;;100.27;42.17;;;-4.00;99.90;;;;;;5077430;28;20024;-80
2021/04/07 01:08:29;;;;;;;110.80;44.53;;;-4.00;99.90;;;;;;5095409;28;20036;-81
2021/04/07 01:10:54;;;;;;;117.43;43.23;;;-3.90;99.90;;;;;;5076705;28;20020;-81
2021/04/07 01:13:20;;;;;;;105.57;43.10;;;-3.90;99.90;;;;;;5077568;28;20032;-81
2021/04/07 01:15:46;;;;;;;123.17;50.63;;;-3.80;99.90;;;;;;5095417;28;20031;-81
2021/04/07 01:18:11;;;;;;;126.03;50.17;;;-3.80;99.90;;;;;;5077282;28;20016;-81
2021/04/07 01:20:37;;;;;;;113.87;45.83;;;-3.80;99.90;;;;;;5092296;28;20016;-81
2021/04/07 01:23:04;;;;;;;106.93;43.90;;;-3.80;99.90;;;;;;5057056;28;20044;-82
2021/04/07 01:25:30;;;;;;;106.47;44.13;;;-4.00;99.90;;;;;;5057017;28;20806;-81
2021/04/07 01:27:57;;;;;;;139.40;53.47;;;-4.00;99.90;;;;;;5074895;28;20494;-81
2021/04/07 01:30:23;;;;;;;218.47;76.47;;;-4.00;99.90;;;;;;5056599;28;20493;-81
2021/04/07 01:32:49;;;;;;;186.97;66.23;;;-4.00;99.90;;;;;;5056957;28;20040;-81
2021/04/07 01:35:19;;;;;;;296.73;101.83;;;-3.90;99.90;;;;;;5074682;28;20024;-81
2021/04/07 01:37:46;;;;;;;180.40;68.23;;;-3.90;99.90;;;;;;5056746;28;20540;-81
2021/04/07 01:40:15;;;;;;;168.03;63.37;;;-3.80;99.90;;;;;;5075644;28;20025;-81
2021/04/07 01:42:45;;;;;;;179.10;69.00;;;-3.80;99.90;;;;;;5074610;28;20428;-81
2021/04/07 01:45:13;;;;;;;128.13;52.53;;;-3.80;99.90;;;;;;5056612;28;20051;-80
2021/04/07 01:47:39;;;;;;;158.97;61.60;;;-3.80;99.90;;;;;;5074821;28;20024;-80
2021/04/07 01:50:06;;;;;;;138.97;56.77;;;-3.70;99.90;;;;;;5056504;28;20029;-80
2021/04/07 01:52:32;;;;;;;145.27;57.93;;;-3.70;99.90;;;;;;5074294;28;20019;-79
2021/04/07 01:54:58;;;;;;;130.93;54.97;;;-3.70;99.90;;;;;;5076476;28;20024;-81
2021/04/07 01:57:24;;;;;;;116.63;45.23;;;-3.70;99.90;;;;;;5076521;28;20066;-80
2021/04/07 01:59:50;;;;;;;121.13;49.90;;;-3.70;99.90;;;;;;5076342;28;20062;-80
2021/04/07 02:02:16;;;;;;;120.53;46.47;;;-3.70;99.90;;;;;;5094709;28;20032;-80
2021/04/07 02:04:42;;;;;;;104.03;44.00;;;-3.60;99.90;;;;;;5094292;28;20424;-78
2021/04/07 02:07:13;;;;;;;105.27;42.83;;;-3.70;99.90;;;;;;5076370;28;20477;-78
2021/04/07 02:09:39;;;;;;;106.07;43.75;;;-3.70;99.90;;;;;;5076298;28;20069;-78
2021/04/07 02:12:05;;;;;;;91.78;37.45;;;-3.70;99.90;;;;;;5094405;28;20020;-79
2021/04/07 02:14:31;;;;;;;96.00;40.30;;;-3.70;99.90;;;;;;5076065;28;20030;-78
2021/04/07 02:16:59;;;;;;;102.78;41.35;;;-3.70;99.90;;;;;;5094268;28;20089;-79
2021/04/07 02:19:27;;;;;;;98.00;42.03;;;-3.70;99.90;;;;;;5076019;28;20115;-79
2021/04/07 02:22:14;;;;;;;91.37;38.97;;;-3.70;99.90;;;;;;5091216;28;20031;-79
2021/04/07 02:24:42;;;;;;;100.97;41.20;;;-3.70;99.90;;;;;;5075763;28;20032;-80
2021/04/07 02:27:19;;;;;;;86.60;34.72;;;-3.70;99.90;;;;;;5094114;28;20429;-80
2021/04/07 02:29:48;;;;;;;104.63;47.83;;;-3.80;99.90;;;;;;5094233;28;20011;-81
2021/04/07 02:32:13;;;;;;;190.97;75.23;;;-3.90;99.90;;;;;;5075779;28;20027;-81
2021/04/07 02:34:42;;;;;;;177.53;71.90;;;-4.00;99.90;;;;;;5075691;28;20480;-81
2021/04/07 02:37:08;;;;;;;126.38;48.97;;;-4.10;99.90;;;;;;5075792;28;20024;-81
2021/04/07 02:39:34;;;;;;;132.57;53.97;;;-4.10;99.90;;;;;;5093700;28;20123;-80
2021/04/07 02:41:59;;;;;;;109.43;46.50;;;-4.10;99.90;;;;;;5075724;28;20106;-80
2021/04/07 02:44:25;;;;;;;150.47;56.07;;;-4.10;99.90;;;;;;5093735;28;20082;-79
2021/04/07 02:46:51;;;;;;;171.73;66.03;;;-4.10;99.90;;;;;;5075392;28;20437;-79
2021/04/07 02:49:16;;;;;;;154.52;59.67;;;-4.20;99.90;;;;;;5075368;28;20020;-79
2021/04/07 02:51:42;;;;;;;135.80;53.07;;;-4.30;99.90;;;;;;5088466;28;20031;-79
2021/04/07 02:54:08;;;;;;;109.43;46.10;;;-4.30;99.90;;;;;;5075495;28;20031;-79
2021/04/07 02:56:34;;;;;;;203.13;81.07;;;-4.40;99.90;;;;;;5074469;28;20117;-80
2021/04/07 02:59:00;;;;;;;423.93;148.23;;;-4.40;99.90;;;;;;5053203;28;20025;-79
2021/04/07 03:01:26;;;;;;;299.80;106.07;;;-4.40;99.90;;;;;;5035337;28;20072;-79
2021/04/07 03:03:52;;;;;;;528.50;180.17;;;-4.40;99.90;;;;;;5052867;28;20044;-78
2021/04/07 03:06:18;;;;;;;358.87;114.07;;;-4.50;99.90;;;;;;5035137;28;20018;-79
2021/04/07 03:08:44;;;;;;;315.47;101.03;;;-4.50;99.90;;;;;;5045799;28;20030;-79
2021/04/07 03:11:10;;;;;;;178.03;65.63;;;-4.60;99.90;;;;;;5033147;28;20501;-78
2021/04/07 03:13:36;;;;;;;127.43;50.40;;;-4.60;99.10;;;;;;5015085;28;20033;-79
2021/04/07 03:16:02;;;;;;;125.50;45.90;;;-4.70;99.30;;;;;;5015368;28;20026;-79
2021/04/07 03:18:27;;;;;;;108.87;44.43;;;-4.70;99.20;;;;;;5015318;28;20027;-80
2021/04/07 03:20:53;;;;;;;116.80;43.57;;;-4.80;99.60;;;;;;5042056;28;20025;-79
2021/04/07 03:23:19;;;;;;;183.67;66.83;;;-4.80;99.40;;;;;;5052777;28;20032;-80
2021/04/07 03:25:44;;;;;;;368.07;132.37;;;-4.80;99.90;;;;;;5034905;28;20037;-78
2021/04/07 03:28:10;;;;;;;369.17;135.27;;;-4.80;99.90;;;;;;5035065;28;20017;-80
2021/04/07 03:30:51;;;;;;;241.27;90.80;;;-4.80;99.90;;;;;;5053442;28;20490;-79
2021/04/07 03:33:30;;;;;;;260.17;97.80;;;-4.80;99.90;;;;;;5034981;28;20025;-79
2021/04/07 03:35:57;;;;;;;272.70;95.27;;;-4.80;99.90;;;;;;5052694;28;20036;-79
2021/04/07 03:38:23;;;;;;;365.90;127.57;;;-4.80;99.90;;;;;;5034827;28;20029;-79
2021/04/07 03:40:49;;;;;;;471.77;159.20;;;-4.80;99.90;;;;;;5052371;28;20021;-79
2021/04/07 03:43:21;;;;;;;412.63;135.07;;;-4.90;99.90;;;;;;5037264;28;20044;-79
2021/04/07 03:45:50;;;;;;;477.38;215.00;;;-4.90;99.90;;;;;;5051944;28;20470;-79
2021/04/07 03:48:20;;;;;;;580.87;210.97;;;-4.90;99.90;;;;;;5052578;28;20013;-79
2021/04/07 03:50:47;;;;;;;561.73;202.37;;;-4.90;99.90;;;;;;5034682;28;20493;-79
2021/04/07 03:53:14;;;;;;;604.23;220.30;;;-4.90;99.90;;;;;;5052584;28;20025;-80
2021/04/07 03:55:41;;;;;;;187.13;69.47;;;-4.90;99.90;;;;;;5060885;28;20127;-80
2021/04/07 03:58:07;;;;;;;189.17;61.37;;;-5.10;99.90;;;;;;5050857;28;20186;-80
2021/04/07 04:00:33;;;;;;;257.07;78.47;;;-5.10;99.90;;;;;;5022384;28;20395;-81
2021/04/07 04:02:58;;;;;;;319.50;94.20;;;-5.20;99.90;;;;;;5032448;28;20049;-80
2021/04/07 04:05:24;;;;;;;332.87;96.10;;;-5.20;99.90;;;;;;5032400;28;20025;-80
2021/04/07 04:07:50;;;;;;;311.70;90.13;;;-5.20;99.90;;;;;;5023274;28;20024;-81
2021/04/07 04:10:16;;;;;;;167.37;58.20;;;-5.10;99.90;;;;;;5078467;28;20027;-80
2021/04/07 04:12:43;;;;;;;152.00;54.20;;;-5.10;99.90;;;;;;5078421;28;20099;-80
2021/04/07 04:15:10;;;;;;;161.03;58.50;;;-5.10;99.90;;;;;;5096527;28;20074;-80
2021/04/07 04:17:40;;;;;;;145.60;57.97;;;-5.10;99.90;;;;;;5096535;28;20020;-80
2021/04/07 04:20:07;;;;;;;160.47;53.77;;;-5.10;99.90;;;;;;5096618;28;20031;-80
2021/04/07 04:22:33;;;;;;;205.63;70.50;;;-5.00;99.90;;;;;;5078229;28;20017;-80
2021/04/07 04:24:59;;;;;;;271.07;90.00;;;-4.90;99.90;;;;;;5076303;28;20025;-80
2021/04/07 04:27:24;;;;;;;271.80;90.37;;;-4.90;99.90;;;;;;5096497;28;20526;-81
2021/04/07 04:29:50;;;;;;;232.57;87.67;;;-4.80;99.90;;;;;;5078106;28;20392;-80
2021/04/07 04:32:16;;;;;;;221.10;75.13;;;-4.80;99.90;;;;;;5096322;28;20028;-80
2021/04/07 04:34:41;;;;;;;212.00;78.97;;;-4.60;99.90;;;;;;5096293;28;20020;-80
2021/04/07 04:37:07;;;;;;;217.87;78.97;;;-4.60;99.90;;;;;;5096361;28;20024;-80
2021/04/07 04:39:33;;;;;;;192.50;74.03;;;-4.40;99.90;;;;;;5077930;28;20024;-79
2021/04/07 04:41:59;;;;;;;203.67;70.30;;;-4.30;99.90;;;;;;5077993;28;20366;-80
2021/04/07 04:44:24;;;;;;;190.53;71.37;;;-4.20;99.90;;;;;;5068093;28;20033;-79
2021/04/07 04:46:50;;;;;;;264.03;86.90;;;-4.00;99.90;;;;;;5057816;28;20028;-80
2021/04/07 04:49:16;;;;;;;220.13;82.43;;;-3.90;99.90;;;;;;5075504;28;20029;-80
2021/04/07 04:51:41;;;;;;;291.83;104.37;;;-3.90;99.90;;;;;;5082649;28;20367;-80
2021/04/07 04:54:07;;;;;;;250.87;84.70;;;-3.70;99.90;;;;;;5095834;28;20059;-80
2021/04/07 04:56:33;;;;;;;255.50;89.60;;;-3.60;99.90;;;;;;5064249;28;20039;-80
2021/04/07 04:58:58;;;;;;;118.07;47.00;;;-3.60;99.90;;;;;;5061331;28;20052;-79
2021/04/07 05:01:24;;;;;;;669.67;227.17;;;-3.50;99.90;;;;;;5074283;28;20027;-79
2021/04/07 05:03:50;;;;;;;1127.37;411.17;;;-3.40;99.90;;;;;;5075293;28;20405;-80
2021/04/07 05:06:15;;;;;;;757.35;283.50;;;-3.20;99.90;;;;;;5075494;28;20039;-79
2021/04/07 05:08:45;;;;;;;198.67;70.03;;;-3.10;99.90;;;;;;5074909;28;20044;-80
2021/04/07 05:11:10;;;;;;;101.63;42.35;;;-2.90;99.90;;;;;;5075246;28;20523;-80
2021/04/07 05:13:36;;;;;;;78.35;33.90;;;-2.80;99.90;;;;;;5057264;28;20024;-84
2021/04/07 05:16:02;;;;;;;88.13;36.08;;;-2.70;99.90;;;;;;5057251;28;20099;-80
2021/04/07 05:18:28;;;;;;;100.83;41.63;;;-2.70;99.90;;;;;;5056752;28;20024;-79
2021/04/07 05:20:53;;;;;;;109.35;46.83;;;-2.60;99.90;;;;;;5075108;28;20062;-80
2021/04/07 05:23:19;;;;;;;142.20;57.58;;;-2.50;99.90;;;;;;5057005;28;20508;-80
2021/04/07 05:25:45;;;;;;;174.43;70.60;;;-2.50;99.90;;;;;;5073715;28;20465;-79
2021/04/07 05:28:11;;;;;;;108.43;49.05;;;-2.40;99.90;;;;;;5057030;28;20021;-80
2021/04/07 05:33:22;;;;;;;83.65;38.08;;;-2.10;99.90;;;;;;5075330;28;20043;-91
2021/04/07 05:35:48;;;;;;;78.97;35.15;;;-2.00;99.90;;;;;;5056786;28;20107;-85
2021/04/07 05:38:13;;;;;;;82.85;34.47;;;-1.80;99.90;;;;;;5074454;28;20078;-83
2021/04/07 05:40:40;;;;;;;80.88;34.42;;;-1.70;99.90;;;;;;5083997;28;20024;-84
2021/04/07 05:43:07;;;;;;;74.30;35.72;;;-1.70;99.90;;;;;;5056823;28;20031;-80
2021/04/07 05:45:33;;;;;;;74.78;34.83;;;-1.60;99.90;;;;;;5056489;28;20016;-83
2021/04/07 05:47:58;;;;;;;74.03;34.15;;;-1.50;99.90;;;;;;5073714;28;20033;-84
2021/04/07 05:50:24;;;;;;;79.40;34.65;;;-1.50;99.90;;;;;;5056744;28;20100;-81
2021/04/07 05:52:51;;;;;;;80.05;36.10;;;-1.40;99.90;;;;;;5056311;28;20028;-82
2021/04/07 05:55:17;;;;;;;81.32;35.88;;;-1.20;99.90;;;;;;5056661;28;20020;-84
2021/04/07 05:57:43;;;;;;;71.25;35.28;;;-1.20;99.90;;;;;;5056440;28;20475;-83
2021/04/07 06:00:10;;;;;;;76.07;34.28;;;-1.00;99.90;;;;;;5074081;28;20024;-83
2021/04/07 06:02:35;;;;;;;66.28;33.30;;;-1.10;99.90;;;;;;5083260;28;20023;-82
2021/04/07 06:05:01;;;;;;;84.75;35.42;;;-1.10;99.90;;;;;;5091467;28;20324;-84
2021/04/07 06:07:27;;;;;;;74.68;34.80;;;-1.00;99.90;;;;;;5082508;28;20123;-83
2021/04/07 06:09:52;;;;;;;84.25;36.40;;;-1.10;99.90;;;;;;5093172;28;20114;-80
2021/04/07 06:12:18;;;;;;;73.80;33.47;;;-1.00;99.90;;;;;;5071741;28;20031;-83
2021/04/07 06:14:44;;;;;;;66.35;30.17;;;-0.80;99.90;;;;;;5075898;28;20052;-83
2021/04/07 06:17:09;;;;;;;62.67;31.75;;;-0.60;99.90;;;;;;5076112;28;20020;-87
2021/04/07 06:19:35;;;;;;;60.15;29.23;;;-0.60;99.90;;;;;;5075491;28;20073;-86
2021/04/07 06:22:01;;;;;;;78.28;31.27;;;-0.50;99.90;;;;;;5094423;28;20017;-85
2021/04/07 06:24:26;;;;;;;49.38;25.15;;;-0.50;99.90;;;;;;5075754;28;20089;-86
2021/04/07 06:26:52;;;;;;;106.63;42.83;;;-0.40;99.90;;;;;;5094293;28;20028;-87
2021/04/07 06:29:18;;;;;;;96.65;43.08;;;-0.30;99.90;;;;;;5093779;28;20453;-86
2021/04/07 06:31:43;;;;;;;101.15;47.35;;;-0.10;99.90;;;;;;5062874;28;20040;-82
2021/04/07 06:34:09;;;;;;;120.53;49.83;;;0.00;99.90;;;;;;5068477;28;20540;-85
2021/04/07 06:36:35;;;;;;;75.80;32.80;;;0.10;99.90;;;;;;5053113;28;20025;-87
2021/04/07 06:39:01;;;;;;;84.20;38.15;;;0.30;99.90;;;;;;5048277;28;20028;-87
2021/04/07 06:41:27;;;;;;;95.40;44.90;;;0.30;99.90;;;;;;5071579;28;20430;-84
2021/04/07 06:43:56;;;;;;;110.47;48.00;;;0.50;99.90;;;;;;5052309;28;20035;-88
2021/04/07 06:46:23;;;;;;;104.47;43.97;;;0.60;99.90;;;;;;5052506;28;20021;-85
2021/04/07 06:48:52;;;;;;;119.70;46.92;;;0.70;98.40;;;;;;5051651;28;20024;-83
2021/04/07 06:51:21;;;;;;;75.40;32.65;;;0.60;94.70;;;;;;5052370;28;20020;-86
2021/04/07 06:53:50;;;;;;;167.50;71.15;;;0.60;94.30;;;;;;5051778;28;20112;-87
2021/04/07 06:56:17;;;;;;;73.40;28.85;;;0.80;91.60;;;;;;5051944;28;20020;-87
2021/04/07 06:58:46;;;;;;;78.88;31.77;;;0.80;90.80;;;;;;5051326;28;20103;-86
2021/04/07 07:01:12;;;;;;;113.10;44.75;;;0.90;86.60;;;;;;5069362;28;20556;-85
2021/04/07 07:03:38;;;;;;;122.32;50.10;;;1.10;89.10;;;;;;5069767;28;20040;-86
2021/04/07 07:06:04;;;;;;;111.50;37.78;;;1.30;93.00;;;;;;5045072;28;20604;-84
2021/04/07 07:08:31;;;;;;;84.00;34.80;;;1.30;89.10;;;;;;5045539;28;20032;-84
2021/04/07 07:11:17;;;;;;;66.78;30.05;;;1.50;87.10;;;;;;5050482;28;20024;-83
2021/04/07 07:13:44;;;;;;;70.20;31.63;;;1.50;86.80;;;;;;5051314;28;20513;-85
2021/04/07 07:16:11;;;;;;;65.18;31.83;;;1.60;82.20;;;;;;5051573;28;20107;-86
2021/04/07 07:18:41;;;;;;;56.33;30.15;;;1.30;80.10;;;;;;5050656;28;20371;-87
2021/04/07 07:21:14;;;;;;;54.92;27.10;;;1.70;82.00;;;;;;5055383;28;20020;-89
2021/04/07 07:23:47;;;;;;;60.10;26.92;;;1.80;79.20;;;;;;5052266;28;20531;-87
2021/04/07 07:26:13;;;;;;;61.22;29.45;;;1.80;77.70;;;;;;5069132;28;20016;-85
2021/04/07 07:28:47;;;;;;;34.63;20.60;;;1.60;75.60;;;;;;5072678;28;20046;-90
2021/04/07 07:31:24;;;;;;;38.65;21.30;;;1.50;77.90;;;;;;5070156;28;20630;-86
2021/04/07 07:33:54;;;;;;;36.45;19.17;;;1.50;77.90;;;;;;5051718;28;20063;-87
2021/04/07 07:36:21;;;;;;;25.60;14.40;;;1.60;78.10;;;;;;5069772;28;20573;-90
2021/04/07 07:38:52;;;;;;;50.55;24.50;;;1.40;73.80;;;;;;5044534;28;20078;-88
2021/04/07 07:41:24;;;;;;;48.97;21.20;;;1.60;76.90;;;;;;5039203;28;20024;-91
2021/04/07 07:43:51;;;;;;;30.83;14.77;;;1.60;74.40;;;;;;5038081;28;20070;-86
2021/04/07 07:46:23;;;;;;;37.03;17.73;;;1.50;72.80;;;;;;5039065;28;20079;-85
2021/04/07 07:48:49;;;;;;;24.65;13.38;;;1.60;73.20;;;;;;5053494;28;20073;-88
2021/04/07 07:51:20;;;;;;;18.02;10.35;;;1.70;72.20;;;;;;5038072;28;20055;-86
2021/04/07 07:53:48;;;;;;;18.00;10.68;;;1.80;69.80;;;;;;5039418;28;20635;-86
2021/04/07 07:56:15;;;;;;;28.95;16.15;;;1.90;70.10;;;;;;5045012;28;20482;-92
2021/04/07 07:58:49;;;;;;;27.77;14.57;;;2.10;70.80;;;;;;5067495;28;20107;-91
2021/04/07 08:01:17;;;;;;;47.33;18.20;;;1.90;67.80;;;;;;5069120;28;20048;-86
2021/04/07 08:03:44;;;;;;;43.70;17.55;;;1.90;70.10;;;;;;5050370;28;20044;-87
2021/04/07 08:06:11;;;;;;;34.08;15.73;;;1.90;70.20;;;;;;5054043;28;20449;-90
2021/04/07 08:08:37;;;;;;;33.10;14.82;;;2.30;74.20;;;;;;5052843;28;20036;-85
2021/04/07 08:11:04;;;;;;;24.70;13.60;;;2.40;73.60;;;;;;5048350;28;20048;-86
2021/04/07 08:13:36;;;;;;;27.08;13.98;;;2.40;71.60;;;;;;5054809;28;20032;-90
2021/04/07 08:16:03;;;;;;;30.60;15.23;;;2.50;72.70;;;;;;5054358;28;20099;-90
2021/04/07 08:18:30;;;;;;;43.78;20.60;;;2.20;72.30;;;;;;5036996;28;20021;-90
2021/04/07 08:20:56;;;;;;;17.83;10.88;;;2.00;74.40;;;;;;5059098;28;20029;-84
2021/04/07 08:23:23;;;;;;;13.60;6.68;;;1.30;84.50;;;;;;5065676;28;20033;-85
2021/04/07 08:25:54;;;;;;;18.05;10.15;;;0.50;90.60;;;;;;5075395;28;20032;-81
2021/04/07 08:28:22;;;;;;;21.70;11.82;;;0.40;97.30;;;;;;5051020;28;20121;-88
2021/04/07 08:30:49;;;;;;;15.07;7.32;;;0.20;99.90;;;;;;5069062;28;20020;-88
2021/04/07 08:33:21;;;;;;;28.45;11.25;;;0.10;99.90;;;;;;5052375;28;20044;-82
2021/04/07 08:35:51;;;;;;;21.15;10.90;;;0.20;99.90;;;;;;5072340;28;20029;-91
2021/04/07 08:38:16;;;;;;;16.42;9.38;;;0.20;99.90;;;;;;5051588;28;20016;-85
2021/04/07 08:40:44;;;;;;;20.08;8.77;;;0.40;99.90;;;;;;5051836;28;20531;-81
2021/04/07 08:43:12;;;;;;;12.82;6.78;;;0.70;99.10;;;;;;5051285;28;20048;-78
2021/04/07 08:45:46;;;;;;;9.90;6.55;;;1.00;97.10;;;;;;5051681;28;20119;-86
2021/04/07 08:48:18;;;;;;;12.88;7.60;;;1.00;90.60;;;;;;5069291;28;20029;-86
2021/04/07 08:50:47;;;;;;;13.75;8.55;;;1.40;94.90;;;;;;5051288;28;20552;-89
2021/04/07 08:53:15;;;;;;;29.77;13.40;;;1.80;90.80;;;;;;5063306;28;20052;-87
2021/04/07 08:55:54;;;;;;;15.63;8.45;;;2.00;90.70;;;;;;5073459;28;20024;-83
2021/04/07 08:58:25;;;;;;;16.85;8.68;;;2.10;77.90;;;;;;5072866;28;20543;-83
2021/04/07 09:00:53;;;;;;;25.17;11.05;;;2.00;74.40;;;;;;5072949;28;20071;-90
2021/04/07 09:03:23;;;;;;;11.73;6.40;;;1.90;71.30;;;;;;5073096;28;20047;-86
2021/04/07 09:05:49;;;;;;;14.63;8.05;;;1.90;70.40;;;;;;5073390;28;20051;-89
2021/04/07 09:08:25;;;;;;;10.63;6.00;;;1.90;70.20;;;;;;5054156;28;20056;-86
2021/04/07 09:10:53;;;;;;;14.98;7.88;;;1.90;69.50;;;;;;5051987;28;20055;-84
2021/04/07 09:13:32;;;;;;;24.55;11.70;;;1.90;70.00;;;;;;5075185;28;20073;-84
2021/04/07 09:16:06;;;;;;;22.60;8.23;;;2.00;71.00;;;;;;5056914;28;20051;-89
2021/04/07 09:18:34;;;;;;;10.13;6.78;;;2.20;68.00;;;;;;5072562;28;20024;-82
2021/04/07 09:21:01;;;;;;;20.25;10.15;;;2.30;67.90;;;;;;5072603;28;20024;-94
2021/04/07 09:23:30;;;;;;;8.30;7.07;;;2.50;67.90;;;;;;5054516;28;20063;-92
2021/04/07 09:26:21;;;;;;;7.07;5.97;;;2.70;64.90;;;;;;5072874;28;20078;-89
2021/04/07 09:28:49;;;;;;;12.18;6.03;;;2.70;64.10;;;;;;5053261;28;20371;-88
2021/04/07 09:31:21;;;;;;;16.48;8.13;;;2.60;64.20;;;;;;5072253;28;20398;-79
2021/04/07 09:33:52;;;;;;;7.53;5.07;;;2.70;63.30;;;;;;5072417;28;20111;-88
2021/04/07 09:36:40;;;;;;;8.50;6.10;;;2.60;61.70;;;;;;5072642;28;20021;-85
2021/04/07 09:39:18;;;;;;;8.15;4.78;;;2.90;63.40;;;;;;5049301;28;20466;-80
2021/04/07 09:41:44;;;;;;;7.70;6.03;;;3.10;64.50;;;;;;5053726;28;20099;-86
2021/04/07 09:44:15;;;;;;;9.05;5.63;;;3.30;64.50;;;;;;5072641;28;20129;-82
2021/04/07 09:46:41;;;;;;;7.40;6.05;;;3.40;63.10;;;;;;5041417;28;20025;-87
2021/04/07 09:49:11;;;;;;;9.57;5.85;;;3.30;63.60;;;;;;5053883;28;20381;-84
2021/04/07 09:51:49;;;;;;;6.60;5.00;;;3.20;65.40;;;;;;5041869;28;20070;-79
2021/04/07 09:54:23;;;;;;;8.25;4.53;;;2.80;65.70;;;;;;5052273;28;20071;-80
2021/04/07 09:56:49;;;;;;;5.72;4.60;;;2.90;68.10;;;;;;5056664;28;20846;-81
2021/04/07 09:59:16;;;;;;;8.40;4.78;;;3.10;65.50;;;;;;5035997;28;20036;-77
2021/04/07 10:01:42;;;;;;;6.38;4.22;;;3.40;63.60;;;;;;5053334;28;20425;-80
2021/04/07 10:04:08;;;;;;;7.03;3.03;;;3.40;60.50;;;;;;5038030;28;20539;-87
2021/04/07 10:06:34;;;;;;;4.00;3.58;;;3.20;56.00;;;;;;5053673;28;20029;-81
2021/04/07 10:09:10;;;;;;;6.78;4.78;;;3.00;58.40;;;;;;5037517;28;20473;-79
2021/04/07 10:11:41;;;;;;;11.25;5.88;;;2.70;59.90;;;;;;5032456;28;20035;-82
2021/04/07 10:14:08;;;;;;;8.90;6.20;;;2.20;75.30;;;;;;5058167;28;20031;-83
2021/04/07 10:16:39;;;;;;;11.23;6.57;;;1.30;94.80;;;;;;5063665;28;20112;-81
2021/04/07 10:19:08;;;;;;;10.25;6.80;;;1.20;99.90;;;;;;5051476;28;20092;-84
2021/04/07 10:21:35;;;;;;;10.75;6.90;;;0.90;99.90;;;;;;5045595;28;20020;-88
2021/04/07 10:24:02;;;;;;;14.02;7.00;;;1.00;99.90;;;;;;5062088;28;20031;-86
2021/04/07 10:26:28;;;;;;;14.40;8.82;;;1.10;99.90;;;;;;5054602;28;20028;-85
2021/04/07 10:29:02;;;;;;;17.05;8.23;;;0.90;99.90;;;;;;5050772;28;20017;-84
2021/04/07 10:31:29;;;;;;;14.80;8.80;;;1.00;99.90;;;;;;5069257;28;20025;-82
2021/04/07 10:34:09;;;;;;;17.45;8.10;;;1.20;99.90;;;;;;5079017;28;20111;-80
2021/04/07 10:36:37;;;;;;;27.38;13.25;;;1.40;99.90;;;;;;5066416;28;20374;-84
2021/04/07 10:39:14;;;;;;;15.20;8.98;;;1.70;99.90;;;;;;5074125;28;20043;-82
2021/04/07 10:41:43;;;;;;;11.55;8.07;;;1.70;99.90;;;;;;5063003;28;20021;-80
2021/04/07 10:44:20;;;;;;;13.75;9.18;;;1.80;99.90;;;;;;5064202;28;20040;-81
2021/04/07 10:46:45;;;;;;;16.05;9.50;;;1.80;99.90;;;;;;5067137;28;20094;-83
2021/04/07 10:49:15;;;;;;;190.18;65.85;;;1.70;97.40;;;;;;5079054;28;20064;-83
2021/04/07 10:51:41;;;;;;;72.43;29.60;;;1.70;91.90;;;;;;5080283;28;20031;-81
2021/04/07 10:54:09;;;;;;;574.40;227.23;;;1.70;97.10;;;;;;5058617;28;20028;-82
2021/04/07 10:56:35;;;;;;;190.88;88.10;;;1.90;90.00;;;;;;5058328;28;20047;-82
2021/04/07 10:59:03;;;;;;;202.55;77.45;;;2.10;91.00;;;;;;5056527;28;20028;-79
2021/04/07 11:01:37;;;;;;;158.25;50.85;;;2.10;85.30;;;;;;5066361;28;20028;-78
2021/04/07 11:04:18;;;;;;;113.10;42.88;;;2.10;84.30;;;;;;5048787;28;20500;-82
2021/04/07 11:06:44;;;;;;;156.60;58.58;;;2.10;82.50;;;;;;5035965;28;20615;-82
2021/04/07 11:09:14;;;;;;;21.67;10.73;;;2.00;87.20;;;;;;5039802;28;20037;-82
2021/04/07 11:11:43;;;;;;;39.90;17.40;;;1.30;99.90;;;;;;5038139;28;20033;-82
2021/04/07 11:14:10;;;;;;;17.02;10.45;;;1.10;99.90;;;;;;5040071;28;20109;-82
2021/04/07 11:16:36;;;;;;;18.17;9.32;;;1.00;99.90;;;;;;5071462;28;20430;-82
2021/04/07 11:19:13;;;;;;;13.82;7.97;;;1.00;99.90;;;;;;5062291;28;20039;-84
2021/04/07 11:21:39;;;;;;;13.18;7.18;;;1.10;99.90;;;;;;5036500;28;20024;-84
2021/04/07 11:24:05;;;;;;;13.70;7.72;;;1.50;99.90;;;;;;5039300;28;20048;-84
2021/04/07 11:26:31;;;;;;;15.15;8.38;;;1.90;99.90;;;;;;5051241;28;20012;-82
2021/04/07 11:29:03;;;;;;;13.65;7.50;;;2.40;99.90;;;;;;5046516;28;20536;-81
2021/04/07 11:31:33;;;;;;;215.82;60.10;;;2.60;99.90;;;;;;5053566;28;20047;-83
2021/04/07 11:34:11;;;;;;;13.95;8.52;;;3.00;99.90;;;;;;5039241;28;20102;-82
2021/04/07 11:42:00;;;;;;;15.38;7.13;;;3.50;79.50;;;;;;5056317;28;20028;-84
2021/04/07 11:44:28;;;;;;;23.33;10.43;;;3.70;80.80;;;;;;5032830;28;20481;-83
2021/04/07 11:46:54;;;;;;;18.65;9.68;;;3.90;75.60;;;;;;5035853;28;20381;-85
2021/04/07 11:49:20;;;;;;;44.10;16.20;;;3.90;68.50;;;;;;5036693;28;20449;-85
2021/04/07 11:51:46;;;;;;;31.88;11.52;;;4.10;65.30;;;;;;5054068;28;20009;-81
2021/04/07 11:54:13;;;;;;;12.77;7.45;;;4.60;71.30;;;;;;5050584;28;20033;-79
2021/04/07 11:56:43;;;;;;;36.47;18.77;;;4.90;63.50;;;;;;5050767;28;20040;-82
2021/04/07 11:59:17;;;;;;;75.80;24.02;;;5.10;63.30;;;;;;5034804;28;20047;-81
2021/04/07 12:01:48;;;;;;;31.65;12.93;;;4.70;62.50;;;;;;5037981;28;20036;-80
2021/04/07 12:04:14;;;;;;;22.88;9.18;;;3.30;66.50;;;;;;5045973;28;20040;-79
2021/04/07 12:06:42;;;;;;;39.22;13.60;;;2.20;72.40;;;;;;5051012;28;20017;-81
2021/04/07 12:09:08;;;;;;;58.65;19.25;;;1.70;77.90;;;;;;5048678;28;20024;-81
2021/04/07 12:11:35;;;;;;;56.92;19.95;;;1.20;88.30;;;;;;5055904;28;20016;-83
2021/04/07 12:14:02;;;;;;;72.80;23.58;;;0.70;94.50;;;;;;5059792;28;20447;-83
2021/04/07 12:16:29;;;;;;;117.20;31.08;;;0.40;99.90;;;;;;5081251;28;20474;-86
2021/04/07 12:18:55;;;;;;;99.22;32.58;;;0.20;99.90;;;;;;5051751;28;20032;-82
2021/04/07 12:21:21;;;;;;;76.68;23.75;;;0.00;99.90;;;;;;5068212;28;20036;-82
2021/04/07 12:23:47;;;;;;;104.18;36.40;;;-0.20;99.90;;;;;;5065224;28;20036;-84
2021/04/07 12:26:16;;;;;;;100.75;41.97;;;-0.30;99.90;;;;;;5051953;28;20025;-80
2021/04/07 12:28:46;;;;;;;61.88;26.52;;;-0.20;99.90;;;;;;5057923;28;20039;-82
2021/04/07 12:31:14;;;;;;;45.35;23.33;;;-0.20;99.90;;;;;;5083934;28;20024;-82
2021/04/07 12:33:40;;;;;;;10.38;7.20;;;-0.20;99.90;;;;;;5084357;28;20028;-82
2021/04/07 12:36:09;;;;;;;100.65;37.65;;;-0.10;99.90;;;;;;5066908;28;20031;-82
2021/04/07 12:38:36;;;;;;;52.28;26.55;;;0.10;99.90;;;;;;5063383;28;20017;-89